Latest Weather Observations for Holsworthy

IDN60901

Issued at 5:55 pm EDT Saturday 25 October 2014 (issued every 10 minutes, with the page automatically refreshed every 10 minutes)

About weather observations | Map of Sydney area stations | Latest observations for Sydney area | Other Formats
Station Details ID: 066161 Name: HOLSWORTHY AERODROME AWS Lat: -33.99 Lon: 150.95 Height: 68.16 m
Data from the previous 72 hours. | See also: Recent months at Holsworthy
Date/Time
EDT
Tmp

°C
App
Tmp
°C
Dew
Point
°C
Rel
Hum
%
Delta-T

°C
Wind Press
QNH
hPa
Press
MSL
hPa
Rain
since
9 am
mm
Dir
 
Spd
km/h
Gust
km/h
Spd
kts
Gust
kts
25/05:30pm 22.3 20.5 17.9 76 2.7 SSE 24 30 13 16 1013.6 1013.5 0.0
25/05:00pm 23.3 21.3 17.3 69 3.7 SE 24 32 13 17 1013.5 1013.4 0.0
25/04:30pm 24.7 23.8 17.7 65 4.4 SE 19 26 10 14 1013.2 1013.1 0.0
25/04:00pm 24.9 23.9 17.9 65 4.4 SSE 20 28 11 15 1013.1 1013.0 0.0
25/03:30pm 25.6 23.8 17.8 62 4.9 SSE 24 32 13 17 1013.1 1013.0 0.0
25/03:00pm 26.7 25.1 17.5 57 5.8 SE 22 30 12 16 1013.1 1013.0 0.0
25/02:30pm 27.7 25.9 17.8 54 6.3 SE 24 28 13 15 1013.4 1013.3 0.0
25/02:00pm 28.9 28.0 18.1 52 6.9 E 20 26 11 14 1013.7 1013.6 0.0
25/01:30pm 29.4 29.1 18.2 51 7.2 E 17 24 9 13 1014.0 1013.9 0.0
25/01:00pm 29.6 29.9 18.7 52 7.0 E 15 24 8 13 1014.1 1014.0 0.0
25/12:30pm 31.2 31.9 17.9 45 8.5 NNE 11 17 6 9 1014.2 1014.1 0.0
25/12:00pm 30.4 31.0 15.7 41 9.1 ESE 7 13 4 7 1014.8 1014.6 0.0
25/11:30am 29.4 29.6 14.8 41 8.9 NNE 7 11 4 6 1015.1 1014.9 0.0
25/11:00am 29.3 31.3 16.1 44 8.2 CALM 0 6 0 3 1015.2 1015.0 0.0
25/10:30am 28.0 28.3 14.6 44 8.1 NE 6 9 3 5 1015.3 1015.1 0.0
25/10:00am 26.8 27.3 15.5 50 6.9 SSW 7 11 4 6 1015.3 1015.1 0.0
25/09:30am 24.4 24.4 15.1 56 5.6 W 9 15 5 8 1015.6 1015.4 0.0
25/09:00am 21.9 22.2 16.0 69 3.6 W 9 13 5 7 1015.7 1015.5 0.2
25/08:30am 19.1 20.3 17.4 90 1.0 NW 7 11 4 6 1015.4 1015.2 0.2
25/08:22am 18.3 19.4 17.0 92 0.8 NNW 7 11 4 6 1015.2 1015.0 0.2
25/08:08am 17.8 19.5 17.2 96 0.4 NNW 4 9 2 5 1015.3 1015.1 0.2
25/08:00am 17.8 19.6 17.3 97 0.3 N 4 6 2 3 1015.4 1015.2 0.2
25/07:30am 17.3 19.6 16.8 97 0.3 CALM 0 0 0 0 1015.2 1015.0 0.2
25/07:00am 17.2 18.8 16.9 98 0.2 SW 4 7 2 4 1014.9 1014.7 0.2
25/06:30am 17.2 17.8 16.9 98 0.2 WSW 9 13 5 7 1014.2 1014.1 0.2
25/06:00am 17.6 18.7 17.1 97 0.3 W 7 11 4 6 1013.6 1013.5 0.2
25/05:30am 17.8 19.1 17.2 96 0.4 SSW 6 9 3 5 1013.1 1013.0 0.2
25/05:04am 18.1 19.6 17.5 96 0.4 S 6 7 3 4 1012.8 1012.7 0.2
25/05:00am 18.1 19.6 17.5 96 0.4 S 6 9 3 5 1012.8 1012.7 0.2
25/04:30am 18.2 19.2 17.7 97 0.3 SSE 9 13 5 7 1012.6 1012.5 0.2
25/04:00am 18.1 18.7 17.6 97 0.3 SE 11 17 6 9 1012.6 1012.5 0.2
25/03:36am 18.1 18.6 17.5 96 0.4 SE 11 15 6 8 1012.5 1012.4 0.2
25/03:30am 17.8 18.5 17.0 95 0.5 SE 9 11 5 6 1012.5 1012.4 0.2
25/03:00am 17.8 19.0 16.8 94 0.6 S 6 7 3 4 1012.4 1012.3 0.2
25/02:30am 17.8 19.2 16.3 91 0.9 SW 4 6 2 3 1012.3 1012.2 0.2
25/02:00am 18.4 19.4 16.9 91 0.9 WSW 7 11 4 6 1012.3 1012.2 0.2
25/01:30am 19.0 20.1 17.0 88 1.2 S 7 11 4 6 1012.4 1012.3 0.2
25/01:00am 19.7 19.7 17.3 86 1.5 SSE 13 19 7 10 1012.5 1012.4 0.2
25/12:30am 20.2 20.2 17.2 83 1.8 SSE 13 17 7 9 1012.6 1012.5 0.2
25/12:00am 20.4 21.5 17.2 82 2.0 SE 7 11 4 6 1012.7 1012.6 0.2
 
Date/Time
EDT
Tmp

°C
App
Tmp
°C
Dew
Point
°C
Rel
Hum
%
Delta-T

°C
Wind Press
QNH
hPa
Press
MSL
hPa
Rain
since
9 am
mm
Dir
 
Spd
km/h
Gust
km/h
Spd
kts
Gust
kts
24/11:30pm 20.4 21.2 17.2 82 2.0 S 9 13 5 7 1012.9 1012.8 0.2
24/11:00pm 20.4 21.0 16.8 80 2.2 S 9 11 5 6 1012.4 1012.3 0.2
24/10:30pm 21.4 21.5 17.4 78 2.5 E 13 17 7 9 1012.2 1012.1 0.2
24/10:00pm 21.7 21.8 17.5 77 2.6 E 13 17 7 9 1012.7 1012.6 0.2
24/09:30pm 21.9 23.2 17.5 76 2.7 E 7 15 4 8 1013.4 1013.3 0.2
24/09:00pm 22.2 23.4 17.3 74 3.0 E 7 11 4 6 1013.5 1013.4 0.2
24/08:30pm 22.3 22.8 17.4 74 3.0 E 11 13 6 7 1012.7 1012.6 0.2
24/08:00pm 22.4 22.4 17.3 73 3.2 E 13 20 7 11 1012.7 1012.6 0.2
24/07:30pm 22.7 22.3 17.2 71 3.4 E 15 20 8 11 1012.4 1012.3 0.2
24/07:00pm 23.2 22.8 17.2 69 3.7 E 15 20 8 11 1012.3 1012.2 0.2
24/06:30pm 24.0 23.3 17.3 66 4.2 E 17 28 9 15 1012.2 1012.1 0.2
24/06:00pm 24.9 23.8 17.4 63 4.7 E 19 28 10 15 1012.2 1012.1 0.2
24/05:30pm 25.9 25.1 18.1 62 4.9 E 19 26 10 14 1012.2 1012.1 0.2
24/05:00pm 26.5 25.7 18.1 60 5.3 E 19 26 10 14 1012.5 1012.4 0.2
24/04:30pm 26.7 25.7 18.0 59 5.5 E 20 28 11 15 1012.7 1012.6 0.2
24/04:00pm 27.6 27.2 18.0 55 6.1 ENE 17 26 9 14 1012.9 1012.8 0.2
24/03:30pm 28.2 27.5 18.6 56 6.2 E 20 30 11 16 1013.3 1013.2 0.2
24/03:00pm 29.4 28.1 16.9 47 7.9 E 19 24 10 13 1013.8 1013.7 0.2
24/02:30pm 29.6 26.6 13.8 38 9.5 N 22 32 12 17 1014.5 1014.3 0.2
24/02:00pm 28.7 25.5 13.0 38 9.3 NNE 22 30 12 16 1015.3 1015.1 0.2
24/01:30pm 27.9 26.3 14.9 45 7.9 NNE 17 26 9 14 1015.9 1015.7 0.2
24/01:00pm 27.7 26.2 15.4 47 7.5 NNE 17 24 9 13 1016.5 1016.3 0.2
24/12:30pm 25.9 25.5 16.2 55 6.0 N 13 20 7 11 1017.2 1017.0 0.2
24/12:00pm 24.6 23.6 15.5 57 5.5 N 15 24 8 13 1017.9 1017.7 0.2
24/11:30am 23.5 23.0 16.8 66 4.1 N 15 20 8 11 1018.6 1018.4 0.0
24/11:00am 22.3 22.8 17.4 74 3.0 NNE 11 20 6 11 1019.4 1019.3 0.0
24/10:30am 20.6 21.7 17.2 81 2.1 N 7 15 4 8 1020.2 1020.1 0.0
24/10:00am 20.4 21.1 17.0 81 2.1 WNW 9 11 5 6 1020.2 1020.1 0.0
24/09:30am 20.4 21.0 16.8 80 2.2 N 9 15 5 8 1020.3 1020.2 0.0
24/09:00am 20.0 19.8 16.8 82 1.9 N 13 17 7 9 1020.5 1020.4 0.0
24/08:58am 20.0 19.8 16.8 82 1.9 N 13 17 7 9 1020.5 1020.4 0.0
24/08:41am 19.6 20.4 17.2 86 1.5 N 9 13 5 7 1020.3 1020.2 0.0
24/08:30am 19.1 19.7 16.7 86 1.4 WNW 9 13 5 7 1020.3 1020.2 0.0
24/08:00am 18.2 19.2 16.9 92 0.8 NW 7 11 4 6 1020.2 1020.1 0.0
24/07:30am 17.2 17.9 16.2 94 0.6 W 7 11 4 6 1020.4 1020.3 0.0
24/07:00am 17.3 18.0 16.2 93 0.7 WNW 7 9 4 5 1019.8 1019.7 0.0
24/06:30am 17.1 16.9 15.8 92 0.8 SW 11 15 6 8 1020.7 1020.6 0.0
24/06:00am 16.9 16.4 15.8 93 0.6 SE 13 13 7 7 1019.9 1019.8 0.0
24/05:30am 16.9 17.6 15.6 92 0.8 E 6 7 3 4 1019.8 1019.7 0.0
24/05:00am 17.1 17.2 15.6 91 0.9 SE 9 13 5 7 1020.1 1020.0 0.0
24/04:30am 17.1 17.2 15.6 91 0.9 NW 9 20 5 11 1020.1 1020.0 0.0
24/04:00am 17.1 17.5 15.3 89 1.0 N 7 17 4 9 1019.1 1018.9 0.0
24/03:40am 17.1 16.5 15.6 91 0.9 WSW 13 19 7 10 1020.4 1020.3 0.0
24/03:30am 17.0 15.3 15.7 92 0.8 WSW 19 32 10 17 1020.6 1020.5 0.0
24/03:20am 17.0 15.5 16.2 95 0.5 WSW 19 24 10 13 1020.5 1020.4 0.0
24/03:00am 16.9 17.5 15.9 94 0.6 WSW 7 11 4 6 1019.3 1019.2 0.0
24/02:30am 17.2 18.3 15.5 90 1.0 E 4 9 2 5 1019.3 1019.2 0.0
24/02:00am 18.2 17.9 16.5 90 1.0 ENE 13 19 7 10 1019.2 1019.0 0.0
24/01:30am 18.2 17.6 16.7 91 0.9 SSE 15 20 8 11 1020.8 1020.7 0.0
24/01:00am 18.1 17.6 16.8 92 0.8 SSE 15 20 8 11 1020.9 1020.8 0.0
24/12:30am 18.1 17.2 16.8 92 0.8 SE 17 22 9 12 1020.6 1020.5 0.0
24/12:00am 17.8 17.1 16.5 92 0.8 SSE 15 19 8 10 1020.9 1020.8 0.0
 
Date/Time
EDT
Tmp

°C
App
Tmp
°C
Dew
Point
°C
Rel
Hum
%
Delta-T

°C
Wind Press
QNH
hPa
Press
MSL
hPa
Rain
since
9 am
mm
Dir
 
Spd
km/h
Gust
km/h
Spd
kts
Gust
kts
23/11:30pm 17.6 18.3 16.1 91 0.9 S 7 7 4 4 1020.6 1020.5 0.0
23/11:00pm 17.7 18.1 16.2 91 0.9 S 9 13 5 7 1020.7 1020.6 0.0
23/10:30pm 17.7 18.0 16.0 90 1.0 S 9 11 5 6 1020.8 1020.7 0.0
23/10:00pm 18.3 19.3 16.3 88 1.2 SE 6 11 3 6 1020.5 1020.4 0.0
23/09:30pm 18.6 17.9 16.4 87 1.3 SE 15 19 8 10 1019.9 1019.8 0.0
23/09:00pm 18.6 18.4 15.8 84 1.7 SE 11 17 6 9 1019.8 1019.7 0.0
23/08:30pm 19.2 18.2 15.7 80 2.1 SE 15 20 8 11 1019.2 1019.0 0.0
23/08:00pm 19.8 19.9 15.4 76 2.6 SSE 9 13 5 7 1019.3 1019.2 0.0
23/07:30pm 20.2 20.9 16.0 77 2.5 SE 7 9 4 5 1019.0 1018.8 0.0
23/07:00pm 21.0 20.6 16.2 74 2.9 ESE 13 19 7 10 1018.3 1018.1 0.0
23/06:30pm 22.2 22.2 16.2 69 3.6 ESE 11 15 6 8 1018.0 1017.8 0.0
23/06:00pm 23.2 22.5 15.5 62 4.6 ESE 13 17 7 9 1017.6 1017.4 0.0
23/05:30pm 24.3 24.0 15.5 58 5.3 ENE 11 15 6 8 1017.1 1016.9 0.0
23/05:00pm 25.8 24.4 15.5 53 6.3 E 17 24 9 13 1016.7 1016.5 0.0
23/04:30pm 27.1 25.0 15.1 47 7.3 SE 20 28 11 15 1016.4 1016.2 0.0
23/04:00pm 26.8 23.7 13.5 44 7.9 ESE 22 32 12 17 1016.0 1015.8 0.0
23/03:30pm 27.9 24.7 13.1 40 8.7 SE 22 32 12 17 1015.8 1015.6 0.0
23/03:00pm 28.8 24.9 12.2 35 9.7 SE 24 35 13 19 1015.6 1015.4 0.0
23/02:30pm 30.1 26.3 12.5 34 10.4 ESE 24 32 13 17 1015.7 1015.5 0.0
23/02:00pm 30.0 27.1 12.4 34 10.4 E 19 30 10 16 1015.9 1015.7 0.0
23/01:30pm 30.4 28.6 14.5 38 9.7 E 17 32 9 17 1016.3 1016.1 0.0
23/01:00pm 30.4 29.5 13.7 36 10.0 E 11 15 6 8 1016.4 1016.2 0.0
23/12:30pm 29.8 29.2 13.5 36 9.8 E 9 17 5 9 1016.7 1016.5 0.0
23/12:00pm 28.8 27.8 13.5 39 9.1 S 11 20 6 11 1017.0 1016.8 0.0
23/11:30am 28.4 28.3 15.0 44 8.2 WSW 9 19 5 10 1017.3 1017.1 0.0
23/11:00am 26.5 25.9 14.6 48 7.1 W 11 15 6 8 1017.6 1017.4 0.0
23/10:30am 24.5 24.3 14.6 54 5.9 WNW 9 13 5 7 1017.9 1017.7 0.0
23/10:00am 22.8 22.5 14.4 59 4.9 W 9 13 5 7 1018.2 1018.0 0.0
23/09:30am 21.1 21.2 14.5 66 3.9 WNW 7 24 4 13 1018.2 1018.0 0.0
23/09:00am 19.2 18.6 13.6 70 3.2 WNW 9 13 5 7 1018.3 1018.1 0.0
23/08:30am 17.7 17.6 13.2 75 2.5 N 6 9 3 5 1018.2 1018.0 0.0
23/08:00am 15.4 15.0 12.3 82 1.7 W 6 7 3 4 1018.3 1018.1 0.0
23/07:30am 13.5 12.7 11.7 89 1.0 WSW 7 13 4 7 1018.5 1018.3 0.0
23/07:00am 12.3 11.4 11.5 95 0.4 W 7 9 4 5 1018.1 1017.9 0.0
23/06:30am 11.3 10.1 10.4 94 0.5 WSW 7 9 4 5 1018.0 1017.8 0.0
23/06:00am 11.8 11.8 11.0 95 0.4 SW 2 6 1 3 1017.7 1017.5 0.0
23/05:30am 11.4 10.5 10.6 95 0.4 WSW 6 7 3 4 1017.7 1017.5 0.0
23/05:00am 11.0 9.9 9.8 92 0.6 WSW 6 7 3 4 1017.6 1017.4 0.0
23/04:30am 11.5 10.5 10.2 92 0.7 SW 6 7 3 4 1017.7 1017.5 0.0
23/04:00am 11.7 11.8 10.3 91 0.7 CALM 0 0 0 0 1017.7 1017.5 0.0
23/03:30am 12.7 12.0 11.4 92 0.7 SW 6 7 3 4 1017.9 1017.7 0.0
23/03:00am 12.8 12.5 11.5 92 0.7 SW 4 7 2 4 1018.2 1018.0 0.0
23/02:30am 12.8 13.3 11.5 92 0.7 CALM 0 0 0 0 1018.4 1018.2 0.0
23/02:00am 13.3 13.8 11.7 90 0.9 CALM 0 2 0 1 1018.8 1018.6 0.0
23/01:30am 13.8 13.2 11.8 88 1.1 SE 6 7 3 4 1019.1 1018.9 0.0
23/01:00am 14.3 13.5 11.8 85 1.3 ESE 7 7 4 4 1019.5 1019.4 0.0
23/12:30am 14.8 14.1 12.1 84 1.5 ESE 7 7 4 4 1019.7 1019.6 0.0
23/12:00am 14.9 13.8 12.0 83 1.6 ESE 9 11 5 6 1020.0 1019.9 0.0
 
Date/Time
EDT
Tmp

°C
App
Tmp
°C
Dew
Point
°C
Rel
Hum
%
Delta-T

°C
Wind Press
QNH
hPa
Press
MSL
hPa
Rain
since
9 am
mm
Dir
 
Spd
km/h
Gust
km/h
Spd
kts
Gust
kts
22/11:30pm 15.2 14.1 12.1 82 1.7 ESE 9 11 5 6 1020.2 1020.1 0.0
22/11:00pm 15.7 14.6 12.1 79 2.0 ESE 9 9 5 5 1020.5 1020.4 0.0
22/10:30pm 16.0 15.5 12.0 77 2.2 E 6 7 3 4 1020.6 1020.5 0.0
22/10:00pm 16.8 16.1 11.9 73 2.7 ENE 7 7 4 4 1020.5 1020.4 0.0
22/09:30pm 17.0 16.3 11.9 72 2.8 NE 7 11 4 6 1020.4 1020.3 0.0
22/09:00pm 17.3 16.2 12.0 71 2.9 ENE 9 13 5 7 1020.4 1020.3 0.0
22/08:30pm 17.5 16.5 12.2 71 2.9 ENE 9 11 5 6 1020.1 1020.0 0.0
22/08:00pm 18.0 16.3 12.5 70 3.1 ENE 13 19 7 10 1020.0 1019.9 0.0
22/07:30pm 18.2 16.5 12.4 69 3.2 ENE 13 19 7 10 1020.0 1019.9 0.0
22/07:00pm 19.0 16.9 12.5 66 3.6 ENE 15 20 8 11 1019.8 1019.7 0.0
22/06:30pm 20.0 17.9 12.5 62 4.2 ENE 15 24 8 13 1019.8 1019.7 0.0
22/06:00pm 20.7 17.8 12.4 59 4.7 ENE 19 24 10 13 1019.8 1019.7 0.0

Latest Capital City Observations: Canberra | Sydney | Melbourne | Brisbane | Adelaide | Perth | Hobart | Darwin

Other Formats:

Comma delimited format used in spreadsheet applications
http://www.bom.gov.au/fwo/IDN60901/IDN60901.95761.axf

JavaScript Object Notation format (JSON) in row-major order
http://www.bom.gov.au/fwo/IDN60901/IDN60901.95761.json